sensor_id;sensor_type;location;lat;lon;timestamp;P1;durP1;ratioP1;P2;durP2;ratioP2
84759;SDS011;74983;51.084;11.086;2024-02-16T00:00:06;4.32;;;2.20;;
84759;SDS011;74983;51.084;11.086;2024-02-16T00:02:32;3.53;;;2.38;;
84759;SDS011;74983;51.084;11.086;2024-02-16T00:04:57;3.30;;;2.30;;
84759;SDS011;74983;51.084;11.086;2024-02-16T00:07:23;2.90;;;2.20;;
84759;SDS011;74983;51.084;11.086;2024-02-16T00:09:48;3.53;;;2.50;;
84759;SDS011;74983;51.084;11.086;2024-02-16T00:12:14;5.53;;;2.67;;
84759;SDS011;74983;51.084;11.086;2024-02-16T00:14:39;3.88;;;2.60;;
84759;SDS011;74983;51.084;11.086;2024-02-16T00:17:05;5.23;;;3.23;;
84759;SDS011;74983;51.084;11.086;2024-02-16T00:19:30;5.70;;;2.63;;
84759;SDS011;74983;51.084;11.086;2024-02-16T00:21:55;5.40;;;2.83;;
84759;SDS011;74983;51.084;11.086;2024-02-16T00:24:21;3.63;;;2.77;;
84759;SDS011;74983;51.084;11.086;2024-02-16T00:26:46;3.78;;;2.53;;
84759;SDS011;74983;51.084;11.086;2024-02-16T00:29:11;4.47;;;3.00;;
84759;SDS011;74983;51.084;11.086;2024-02-16T00:31:37;7.10;;;2.97;;
84759;SDS011;74983;51.084;11.086;2024-02-16T00:34:03;5.10;;;2.80;;
84759;SDS011;74983;51.084;11.086;2024-02-16T00:36:28;4.57;;;2.77;;
84759;SDS011;74983;51.084;11.086;2024-02-16T00:38:55;4.95;;;2.70;;
84759;SDS011;74983;51.084;11.086;2024-02-16T00:41:21;3.95;;;2.55;;
84759;SDS011;74983;51.084;11.086;2024-02-16T00:43:47;8.77;;;3.20;;
84759;SDS011;74983;51.084;11.086;2024-02-16T00:46:13;3.93;;;2.90;;
84759;SDS011;74983;51.084;11.086;2024-02-16T00:48:38;3.30;;;2.67;;
84759;SDS011;74983;51.084;11.086;2024-02-16T00:51:03;7.57;;;3.57;;
84759;SDS011;74983;51.084;11.086;2024-02-16T00:53:28;3.63;;;2.73;;
84759;SDS011;74983;51.084;11.086;2024-02-16T00:55:54;3.63;;;2.80;;
84759;SDS011;74983;51.084;11.086;2024-02-16T00:58:19;3.90;;;2.77;;
84759;SDS011;74983;51.084;11.086;2024-02-16T01:00:44;5.73;;;2.73;;
84759;SDS011;74983;51.084;11.086;2024-02-16T01:03:10;5.13;;;3.10;;
84759;SDS011;74983;51.084;11.086;2024-02-16T01:05:37;3.03;;;2.40;;
84759;SDS011;74983;51.084;11.086;2024-02-16T01:08:02;5.53;;;3.00;;
84759;SDS011;74983;51.084;11.086;2024-02-16T01:10:28;5.32;;;3.00;;
84759;SDS011;74983;51.084;11.086;2024-02-16T01:12:53;6.03;;;2.97;;
84759;SDS011;74983;51.084;11.086;2024-02-16T01:15:20;4.07;;;2.63;;
84759;SDS011;74983;51.084;11.086;2024-02-16T01:17:46;5.30;;;3.00;;
84759;SDS011;74983;51.084;11.086;2024-02-16T01:20:11;3.63;;;2.53;;
84759;SDS011;74983;51.084;11.086;2024-02-16T01:22:37;7.13;;;3.30;;
84759;SDS011;74983;51.084;11.086;2024-02-16T01:25:04;3.47;;;2.10;;
84759;SDS011;74983;51.084;11.086;2024-02-16T01:27:29;3.55;;;1.83;;
84759;SDS011;74983;51.084;11.086;2024-02-16T01:29:55;4.77;;;1.80;;
84759;SDS011;74983;51.084;11.086;2024-02-16T01:32:20;2.65;;;1.98;;
84759;SDS011;74983;51.084;11.086;2024-02-16T01:34:45;3.73;;;2.10;;
84759;SDS011;74983;51.084;11.086;2024-02-16T01:37:13;3.50;;;2.13;;
84759;SDS011;74983;51.084;11.086;2024-02-16T01:39:39;4.60;;;1.70;;
84759;SDS011;74983;51.084;11.086;2024-02-16T01:42:04;3.87;;;2.00;;
84759;SDS011;74983;51.084;11.086;2024-02-16T01:44:29;3.57;;;2.40;;
84759;SDS011;74983;51.084;11.086;2024-02-16T01:46:55;3.90;;;2.37;;
84759;SDS011;74983;51.084;11.086;2024-02-16T01:49:20;3.80;;;2.20;;
84759;SDS011;74983;51.084;11.086;2024-02-16T01:51:46;7.35;;;2.38;;
84759;SDS011;74983;51.084;11.086;2024-02-16T01:54:12;4.47;;;2.90;;
84759;SDS011;74983;51.084;11.086;2024-02-16T01:56:37;6.78;;;2.13;;
84759;SDS011;74983;51.084;11.086;2024-02-16T01:59:02;3.83;;;1.90;;
84759;SDS011;74983;51.084;11.086;2024-02-16T02:01:29;2.83;;;2.40;;
84759;SDS011;74983;51.084;11.086;2024-02-16T02:03:54;3.15;;;2.10;;
84759;SDS011;74983;51.084;11.086;2024-02-16T02:06:20;3.78;;;2.45;;
84759;SDS011;74983;51.084;11.086;2024-02-16T02:08:46;3.67;;;2.35;;
84759;SDS011;74983;51.084;11.086;2024-02-16T02:11:11;4.87;;;3.07;;
84759;SDS011;74983;51.084;11.086;2024-02-16T02:13:37;3.90;;;3.27;;
84759;SDS011;74983;51.084;11.086;2024-02-16T02:16:02;6.43;;;2.65;;
84759;SDS011;74983;51.084;11.086;2024-02-16T02:18:29;4.72;;;2.85;;
84759;SDS011;74983;51.084;11.086;2024-02-16T02:20:54;4.13;;;2.40;;
84759;SDS011;74983;51.084;11.086;2024-02-16T02:23:19;5.87;;;2.77;;
84759;SDS011;74983;51.084;11.086;2024-02-16T02:25:45;4.63;;;2.37;;
84759;SDS011;74983;51.084;11.086;2024-02-16T02:28:10;3.97;;;2.57;;
84759;SDS011;74983;51.084;11.086;2024-02-16T02:30:35;4.00;;;2.80;;
84759;SDS011;74983;51.084;11.086;2024-02-16T02:33:00;3.93;;;2.70;;
84759;SDS011;74983;51.084;11.086;2024-02-16T02:35:26;4.00;;;2.60;;
84759;SDS011;74983;51.084;11.086;2024-02-16T02:37:51;4.37;;;2.70;;
84759;SDS011;74983;51.084;11.086;2024-02-16T02:40:16;4.93;;;2.97;;
84759;SDS011;74983;51.084;11.086;2024-02-16T02:42:42;7.18;;;3.10;;
84759;SDS011;74983;51.084;11.086;2024-02-16T02:45:07;4.07;;;2.93;;
84759;SDS011;74983;51.084;11.086;2024-02-16T02:47:33;5.30;;;3.00;;
84759;SDS011;74983;51.084;11.086;2024-02-16T02:49:58;3.97;;;2.95;;
84759;SDS011;74983;51.084;11.086;2024-02-16T02:52:24;4.15;;;3.05;;
84759;SDS011;74983;51.084;11.086;2024-02-16T02:54:49;5.43;;;2.77;;
84759;SDS011;74983;51.084;11.086;2024-02-16T02:57:14;7.13;;;2.87;;
84759;SDS011;74983;51.084;11.086;2024-02-16T02:59:40;3.77;;;2.90;;
84759;SDS011;74983;51.084;11.086;2024-02-16T03:02:05;4.70;;;2.93;;
84759;SDS011;74983;51.084;11.086;2024-02-16T03:04:30;6.00;;;3.47;;
84759;SDS011;74983;51.084;11.086;2024-02-16T03:06:55;10.20;;;3.30;;
84759;SDS011;74983;51.084;11.086;2024-02-16T03:09:21;3.23;;;2.80;;
84759;SDS011;74983;51.084;11.086;2024-02-16T03:11:47;5.25;;;2.83;;
84759;SDS011;74983;51.084;11.086;2024-02-16T03:14:12;6.37;;;3.10;;
84759;SDS011;74983;51.084;11.086;2024-02-16T03:16:38;3.97;;;2.65;;
84759;SDS011;74983;51.084;11.086;2024-02-16T03:19:05;4.57;;;3.13;;
84759;SDS011;74983;51.084;11.086;2024-02-16T03:23:58;6.20;;;3.10;;
84759;SDS011;74983;51.084;11.086;2024-02-16T03:26:24;7.07;;;3.23;;
84759;SDS011;74983;51.084;11.086;2024-02-16T03:28:49;5.57;;;3.20;;
84759;SDS011;74983;51.084;11.086;2024-02-16T03:31:18;5.17;;;2.80;;
84759;SDS011;74983;51.084;11.086;2024-02-16T03:33:47;3.90;;;2.78;;
84759;SDS011;74983;51.084;11.086;2024-02-16T03:36:13;3.45;;;2.85;;
84759;SDS011;74983;51.084;11.086;2024-02-16T03:38:46;5.75;;;3.35;;
84759;SDS011;74983;51.084;11.086;2024-02-16T03:41:17;5.15;;;3.00;;
84759;SDS011;74983;51.084;11.086;2024-02-16T03:43:44;6.05;;;3.50;;
84759;SDS011;74983;51.084;11.086;2024-02-16T03:46:09;4.82;;;2.92;;
84759;SDS011;74983;51.084;11.086;2024-02-16T03:48:35;4.35;;;2.70;;
84759;SDS011;74983;51.084;11.086;2024-02-16T03:51:01;4.77;;;3.00;;
84759;SDS011;74983;51.084;11.086;2024-02-16T03:53:28;4.55;;;2.97;;
84759;SDS011;74983;51.084;11.086;2024-02-16T03:55:53;5.57;;;3.50;;
84759;SDS011;74983;51.084;11.086;2024-02-16T03:58:18;3.97;;;3.10;;
84759;SDS011;74983;51.084;11.086;2024-02-16T04:00:44;4.55;;;3.20;;
84759;SDS011;74983;51.084;11.086;2024-02-16T04:03:09;7.53;;;3.73;;
84759;SDS011;74983;51.084;11.086;2024-02-16T04:05:35;5.83;;;3.73;;
84759;SDS011;74983;51.084;11.086;2024-02-16T04:08:00;5.57;;;3.40;;
84759;SDS011;74983;51.084;11.086;2024-02-16T04:10:28;6.32;;;4.28;;
84759;SDS011;74983;51.084;11.086;2024-02-16T04:12:54;6.40;;;3.77;;
84759;SDS011;74983;51.084;11.086;2024-02-16T04:15:19;6.07;;;4.10;;
84759;SDS011;74983;51.084;11.086;2024-02-16T04:17:44;7.30;;;4.30;;
84759;SDS011;74983;51.084;11.086;2024-02-16T04:20:09;6.37;;;4.13;;
84759;SDS011;74983;51.084;11.086;2024-02-16T04:22:36;7.70;;;4.90;;
84759;SDS011;74983;51.084;11.086;2024-02-16T04:25:02;7.82;;;5.05;;
84759;SDS011;74983;51.084;11.086;2024-02-16T04:27:29;8.95;;;4.95;;
84759;SDS011;74983;51.084;11.086;2024-02-16T04:29:54;9.20;;;5.20;;
84759;SDS011;74983;51.084;11.086;2024-02-16T04:32:19;7.50;;;5.37;;
84759;SDS011;74983;51.084;11.086;2024-02-16T04:34:44;8.33;;;4.37;;
84759;SDS011;74983;51.084;11.086;2024-02-16T04:37:11;10.32;;;5.15;;
84759;SDS011;74983;51.084;11.086;2024-02-16T04:39:37;8.80;;;6.22;;
84759;SDS011;74983;51.084;11.086;2024-02-16T04:42:02;11.80;;;5.20;;
84759;SDS011;74983;51.084;11.086;2024-02-16T04:44:28;8.75;;;5.00;;
84759;SDS011;74983;51.084;11.086;2024-02-16T04:46:54;7.60;;;5.03;;
84759;SDS011;74983;51.084;11.086;2024-02-16T04:49:19;10.83;;;5.07;;
84759;SDS011;74983;51.084;11.086;2024-02-16T04:51:45;7.80;;;4.90;;
84759;SDS011;74983;51.084;11.086;2024-02-16T04:54:12;6.47;;;5.30;;
84759;SDS011;74983;51.084;11.086;2024-02-16T04:56:38;7.45;;;4.90;;
84759;SDS011;74983;51.084;11.086;2024-02-16T04:59:04;6.85;;;4.80;;
84759;SDS011;74983;51.084;11.086;2024-02-16T05:01:29;5.87;;;4.67;;
84759;SDS011;74983;51.084;11.086;2024-02-16T05:03:56;9.75;;;5.30;;
84759;SDS011;74983;51.084;11.086;2024-02-16T05:06:21;3.97;;;3.38;;
84759;SDS011;74983;51.084;11.086;2024-02-16T05:08:48;5.40;;;2.85;;
84759;SDS011;74983;51.084;11.086;2024-02-16T05:11:13;3.70;;;2.93;;
84759;SDS011;74983;51.084;11.086;2024-02-16T05:13:38;4.03;;;2.63;;
84759;SDS011;74983;51.084;11.086;2024-02-16T05:16:08;4.28;;;2.85;;
84759;SDS011;74983;51.084;11.086;2024-02-16T05:18:34;6.45;;;2.95;;
84759;SDS011;74983;51.084;11.086;2024-02-16T05:20:59;4.22;;;2.63;;
84759;SDS011;74983;51.084;11.086;2024-02-16T05:23:24;5.20;;;2.97;;
84759;SDS011;74983;51.084;11.086;2024-02-16T05:25:50;4.97;;;3.40;;
84759;SDS011;74983;51.084;11.086;2024-02-16T05:28:15;5.87;;;3.37;;
84759;SDS011;74983;51.084;11.086;2024-02-16T05:30:40;5.40;;;3.70;;
84759;SDS011;74983;51.084;11.086;2024-02-16T05:33:05;5.77;;;3.53;;
84759;SDS011;74983;51.084;11.086;2024-02-16T05:35:31;5.83;;;3.73;;
84759;SDS011;74983;51.084;11.086;2024-02-16T05:37:59;7.32;;;3.70;;
84759;SDS011;74983;51.084;11.086;2024-02-16T05:40:31;8.23;;;3.95;;
84759;SDS011;74983;51.084;11.086;2024-02-16T05:43:08;6.75;;;4.00;;
84759;SDS011;74983;51.084;11.086;2024-02-16T05:45:34;5.37;;;3.83;;
84759;SDS011;74983;51.084;11.086;2024-02-16T05:48:00;5.90;;;4.18;;
84759;SDS011;74983;51.084;11.086;2024-02-16T05:50:25;7.80;;;4.33;;
84759;SDS011;74983;51.084;11.086;2024-02-16T05:52:51;5.83;;;4.33;;
84759;SDS011;74983;51.084;11.086;2024-02-16T05:55:16;8.57;;;4.97;;
84759;SDS011;74983;51.084;11.086;2024-02-16T05:57:43;6.30;;;4.63;;
84759;SDS011;74983;51.084;11.086;2024-02-16T06:00:09;8.27;;;5.03;;
84759;SDS011;74983;51.084;11.086;2024-02-16T06:02:35;7.95;;;4.97;;
84759;SDS011;74983;51.084;11.086;2024-02-16T06:05:01;12.68;;;7.65;;
84759;SDS011;74983;51.084;11.086;2024-02-16T06:07:28;11.95;;;6.55;;
84759;SDS011;74983;51.084;11.086;2024-02-16T06:09:57;8.57;;;5.57;;
84759;SDS011;74983;51.084;11.086;2024-02-16T06:12:22;7.10;;;4.30;;
84759;SDS011;74983;51.084;11.086;2024-02-16T06:14:48;6.55;;;4.75;;
84759;SDS011;74983;51.084;11.086;2024-02-16T06:17:14;6.67;;;4.37;;
84759;SDS011;74983;51.084;11.086;2024-02-16T06:19:39;6.70;;;4.63;;
84759;SDS011;74983;51.084;11.086;2024-02-16T06:22:05;6.13;;;4.30;;
84759;SDS011;74983;51.084;11.086;2024-02-16T06:24:30;7.03;;;5.10;;
84759;SDS011;74983;51.084;11.086;2024-02-16T06:26:56;8.00;;;5.20;;
84759;SDS011;74983;51.084;11.086;2024-02-16T06:29:21;7.10;;;4.87;;
84759;SDS011;74983;51.084;11.086;2024-02-16T06:31:46;6.57;;;4.97;;
84759;SDS011;74983;51.084;11.086;2024-02-16T06:34:15;7.95;;;5.25;;
84759;SDS011;74983;51.084;11.086;2024-02-16T06:36:41;10.43;;;6.03;;
84759;SDS011;74983;51.084;11.086;2024-02-16T06:39:06;7.07;;;5.07;;
84759;SDS011;74983;51.084;11.086;2024-02-16T06:41:32;5.00;;;3.00;;
84759;SDS011;74983;51.084;11.086;2024-02-16T06:43:57;3.57;;;2.37;;
84759;SDS011;74983;51.084;11.086;2024-02-16T06:46:22;3.07;;;2.00;;
84759;SDS011;74983;51.084;11.086;2024-02-16T06:48:47;2.57;;;1.53;;
84759;SDS011;74983;51.084;11.086;2024-02-16T06:51:13;2.30;;;1.55;;
84759;SDS011;74983;51.084;11.086;2024-02-16T06:53:38;5.20;;;1.90;;
84759;SDS011;74983;51.084;11.086;2024-02-16T06:56:04;3.07;;;1.47;;
84759;SDS011;74983;51.084;11.086;2024-02-16T06:58:29;1.92;;;1.25;;
84759;SDS011;74983;51.084;11.086;2024-02-16T07:00:55;2.20;;;1.10;;
84759;SDS011;74983;51.084;11.086;2024-02-16T07:03:20;1.67;;;1.30;;
84759;SDS011;74983;51.084;11.086;2024-02-16T07:05:45;2.07;;;1.27;;
84759;SDS011;74983;51.084;11.086;2024-02-16T07:08:10;3.93;;;1.73;;
84759;SDS011;74983;51.084;11.086;2024-02-16T07:10:36;2.67;;;1.37;;
84759;SDS011;74983;51.084;11.086;2024-02-16T07:13:01;2.67;;;1.85;;
84759;SDS011;74983;51.084;11.086;2024-02-16T07:15:27;2.80;;;2.38;;
84759;SDS011;74983;51.084;11.086;2024-02-16T07:17:53;2.83;;;2.43;;
84759;SDS011;74983;51.084;11.086;2024-02-16T07:20:18;3.70;;;2.67;;
84759;SDS011;74983;51.084;11.086;2024-02-16T07:22:43;5.57;;;3.07;;
84759;SDS011;74983;51.084;11.086;2024-02-16T07:25:11;5.70;;;2.47;;
84759;SDS011;74983;51.084;11.086;2024-02-16T07:27:37;3.45;;;2.38;;
84759;SDS011;74983;51.084;11.086;2024-02-16T07:30:03;3.70;;;2.40;;
84759;SDS011;74983;51.084;11.086;2024-02-16T07:32:29;2.85;;;1.67;;
84759;SDS011;74983;51.084;11.086;2024-02-16T07:34:54;3.17;;;2.07;;
84759;SDS011;74983;51.084;11.086;2024-02-16T07:37:19;2.80;;;2.00;;
84759;SDS011;74983;51.084;11.086;2024-02-16T07:39:45;2.87;;;1.70;;
84759;SDS011;74983;51.084;11.086;2024-02-16T07:42:10;3.27;;;1.97;;
84759;SDS011;74983;51.084;11.086;2024-02-16T07:44:37;8.77;;;2.40;;
84759;SDS011;74983;51.084;11.086;2024-02-16T07:47:03;2.93;;;1.87;;
84759;SDS011;74983;51.084;11.086;2024-02-16T07:49:28;2.47;;;1.75;;
84759;SDS011;74983;51.084;11.086;2024-02-16T07:51:54;4.82;;;1.63;;
84759;SDS011;74983;51.084;11.086;2024-02-16T07:54:19;3.30;;;1.60;;
84759;SDS011;74983;51.084;11.086;2024-02-16T07:56:44;2.97;;;1.50;;
84759;SDS011;74983;51.084;11.086;2024-02-16T07:59:10;5.87;;;2.00;;
84759;SDS011;74983;51.084;11.086;2024-02-16T08:01:35;4.10;;;2.70;;
84759;SDS011;74983;51.084;11.086;2024-02-16T08:04:00;3.93;;;2.47;;
84759;SDS011;74983;51.084;11.086;2024-02-16T08:06:26;3.50;;;2.40;;
84759;SDS011;74983;51.084;11.086;2024-02-16T08:08:52;6.07;;;2.90;;
84759;SDS011;74983;51.084;11.086;2024-02-16T08:11:18;4.78;;;2.47;;
84759;SDS011;74983;51.084;11.086;2024-02-16T08:13:43;4.70;;;2.10;;
84759;SDS011;74983;51.084;11.086;2024-02-16T08:16:08;3.00;;;1.73;;
84759;SDS011;74983;51.084;11.086;2024-02-16T08:18:34;3.33;;;1.30;;
84759;SDS011;74983;51.084;11.086;2024-02-16T08:20:59;3.38;;;1.70;;
84759;SDS011;74983;51.084;11.086;2024-02-16T08:23:25;3.27;;;1.70;;
84759;SDS011;74983;51.084;11.086;2024-02-16T08:25:50;2.47;;;1.20;;
84759;SDS011;74983;51.084;11.086;2024-02-16T08:28:15;2.20;;;1.63;;
84759;SDS011;74983;51.084;11.086;2024-02-16T08:30:40;1.37;;;1.10;;
84759;SDS011;74983;51.084;11.086;2024-02-16T08:33:08;2.55;;;1.33;;
84759;SDS011;74983;51.084;11.086;2024-02-16T08:35:34;2.03;;;1.05;;
84759;SDS011;74983;51.084;11.086;2024-02-16T08:37:59;1.63;;;1.20;;
84759;SDS011;74983;51.084;11.086;2024-02-16T08:40:25;3.60;;;1.90;;
84759;SDS011;74983;51.084;11.086;2024-02-16T08:42:50;2.60;;;1.60;;
84759;SDS011;74983;51.084;11.086;2024-02-16T08:45:15;2.70;;;2.00;;
84759;SDS011;74983;51.084;11.086;2024-02-16T08:47:42;5.75;;;2.75;;
84759;SDS011;74983;51.084;11.086;2024-02-16T08:50:08;6.45;;;2.60;;
84759;SDS011;74983;51.084;11.086;2024-02-16T08:52:34;4.47;;;2.17;;
84759;SDS011;74983;51.084;11.086;2024-02-16T08:54:59;4.65;;;2.13;;
84759;SDS011;74983;51.084;11.086;2024-02-16T08:57:25;3.97;;;2.40;;
84759;SDS011;74983;51.084;11.086;2024-02-16T08:59:50;2.53;;;2.10;;
84759;SDS011;74983;51.084;11.086;2024-02-16T09:02:15;3.33;;;2.30;;
84759;SDS011;74983;51.084;11.086;2024-02-16T09:04:40;2.87;;;2.47;;
84759;SDS011;74983;51.084;11.086;2024-02-16T09:07:06;3.40;;;2.23;;
84759;SDS011;74983;51.084;11.086;2024-02-16T09:09:31;4.83;;;2.40;;
84759;SDS011;74983;51.084;11.086;2024-02-16T09:11:56;4.20;;;2.33;;
84759;SDS011;74983;51.084;11.086;2024-02-16T09:14:22;3.92;;;2.53;;
84759;SDS011;74983;51.084;11.086;2024-02-16T09:16:51;2.33;;;2.10;;
84759;SDS011;74983;51.084;11.086;2024-02-16T09:19:19;3.10;;;2.28;;
84759;SDS011;74983;51.084;11.086;2024-02-16T09:21:48;4.45;;;2.45;;
84759;SDS011;74983;51.084;11.086;2024-02-16T09:24:14;4.70;;;2.40;;
84759;SDS011;74983;51.084;11.086;2024-02-16T09:26:43;3.50;;;2.50;;
84759;SDS011;74983;51.084;11.086;2024-02-16T09:29:12;7.30;;;2.70;;
84759;SDS011;74983;51.084;11.086;2024-02-16T09:31:39;5.47;;;2.80;;
84759;SDS011;74983;51.084;11.086;2024-02-16T09:34:05;4.28;;;2.50;;
84759;SDS011;74983;51.084;11.086;2024-02-16T09:36:31;6.73;;;3.20;;
84759;SDS011;74983;51.084;11.086;2024-02-16T09:38:56;4.05;;;3.13;;
84759;SDS011;74983;51.084;11.086;2024-02-16T09:41:22;6.35;;;3.03;;
84759;SDS011;74983;51.084;11.086;2024-02-16T09:43:47;5.60;;;2.33;;
84759;SDS011;74983;51.084;11.086;2024-02-16T09:46:12;3.97;;;2.90;;
84759;SDS011;74983;51.084;11.086;2024-02-16T09:48:39;4.57;;;2.95;;
84759;SDS011;74983;51.084;11.086;2024-02-16T09:51:05;4.25;;;3.10;;
84759;SDS011;74983;51.084;11.086;2024-02-16T09:53:31;6.23;;;3.50;;
84759;SDS011;74983;51.084;11.086;2024-02-16T09:55:56;4.30;;;3.90;;
84759;SDS011;74983;51.084;11.086;2024-02-16T09:58:21;5.15;;;2.70;;
84759;SDS011;74983;51.084;11.086;2024-02-16T10:00:47;3.77;;;2.97;;
84759;SDS011;74983;51.084;11.086;2024-02-16T10:03:27;5.32;;;2.90;;
84759;SDS011;74983;51.084;11.086;2024-02-16T10:06:06;4.30;;;2.30;;
84759;SDS011;74983;51.084;11.086;2024-02-16T10:08:49;4.25;;;2.08;;
84759;SDS011;74983;51.084;11.086;2024-02-16T10:11:22;4.63;;;3.20;;
84759;SDS011;74983;51.084;11.086;2024-02-16T10:14:02;4.30;;;3.53;;
84759;SDS011;74983;51.084;11.086;2024-02-16T10:16:29;7.35;;;3.00;;
84759;SDS011;74983;51.084;11.086;2024-02-16T10:18:56;5.03;;;3.35;;
84759;SDS011;74983;51.084;11.086;2024-02-16T10:21:29;4.05;;;3.10;;
84759;SDS011;74983;51.084;11.086;2024-02-16T10:24:05;5.30;;;3.65;;
84759;SDS011;74983;51.084;11.086;2024-02-16T10:26:33;6.68;;;4.25;;
84759;SDS011;74983;51.084;11.086;2024-02-16T10:29:02;5.13;;;3.53;;
84759;SDS011;74983;51.084;11.086;2024-02-16T10:31:28;4.38;;;3.08;;
84759;SDS011;74983;51.084;11.086;2024-02-16T10:33:59;7.20;;;3.75;;
84759;SDS011;74983;51.084;11.086;2024-02-16T10:36:34;4.80;;;3.47;;
84759;SDS011;74983;51.084;11.086;2024-02-16T10:39:02;5.82;;;4.85;;
84759;SDS011;74983;51.084;11.086;2024-02-16T10:41:34;7.82;;;3.88;;
84759;SDS011;74983;51.084;11.086;2024-02-16T10:44:01;7.00;;;3.95;;
84759;SDS011;74983;51.084;11.086;2024-02-16T10:46:28;4.97;;;3.85;;
84759;SDS011;74983;51.084;11.086;2024-02-16T10:48:53;8.23;;;5.07;;
84759;SDS011;74983;51.084;11.086;2024-02-16T10:51:21;6.73;;;5.10;;
84759;SDS011;74983;51.084;11.086;2024-02-16T10:53:51;6.32;;;3.35;;
84759;SDS011;74983;51.084;11.086;2024-02-16T10:56:26;5.93;;;3.15;;
84759;SDS011;74983;51.084;11.086;2024-02-16T10:58:53;4.32;;;2.80;;
84759;SDS011;74983;51.084;11.086;2024-02-16T11:01:19;4.80;;;3.25;;
84759;SDS011;74983;51.084;11.086;2024-02-16T11:03:44;5.53;;;2.93;;
84759;SDS011;74983;51.084;11.086;2024-02-16T11:06:16;5.07;;;3.03;;
84759;SDS011;74983;51.084;11.086;2024-02-16T11:08:42;4.32;;;3.42;;
84759;SDS011;74983;51.084;11.086;2024-02-16T11:11:07;6.15;;;3.83;;
84759;SDS011;74983;51.084;11.086;2024-02-16T11:13:35;4.95;;;3.08;;
84759;SDS011;74983;51.084;11.086;2024-02-16T11:16:08;5.35;;;3.30;;
84759;SDS011;74983;51.084;11.086;2024-02-16T11:18:38;4.38;;;3.15;;
84759;SDS011;74983;51.084;11.086;2024-02-16T11:21:05;5.47;;;3.20;;
84759;SDS011;74983;51.084;11.086;2024-02-16T11:23:35;11.10;;;3.90;;
84759;SDS011;74983;51.084;11.086;2024-02-16T11:26:02;3.85;;;3.42;;
84759;SDS011;74983;51.084;11.086;2024-02-16T11:28:29;7.07;;;3.08;;
84759;SDS011;74983;51.084;11.086;2024-02-16T11:30:56;4.22;;;3.22;;
84759;SDS011;74983;51.084;11.086;2024-02-16T11:33:21;4.90;;;3.03;;
84759;SDS011;74983;51.084;11.086;2024-02-16T11:35:54;4.23;;;2.53;;
84759;SDS011;74983;51.084;11.086;2024-02-16T11:38:20;3.55;;;2.80;;
84759;SDS011;74983;51.084;11.086;2024-02-16T11:40:58;5.97;;;3.40;;
84759;SDS011;74983;51.084;11.086;2024-02-16T11:43:30;4.15;;;3.08;;
84759;SDS011;74983;51.084;11.086;2024-02-16T11:45:56;5.53;;;2.92;;
84759;SDS011;74983;51.084;11.086;2024-02-16T11:48:22;5.07;;;3.00;;
84759;SDS011;74983;51.084;11.086;2024-02-16T11:50:49;4.93;;;3.00;;
84759;SDS011;74983;51.084;11.086;2024-02-16T11:53:23;5.22;;;2.85;;
84759;SDS011;74983;51.084;11.086;2024-02-16T11:55:48;4.30;;;2.87;;
84759;SDS011;74983;51.084;11.086;2024-02-16T11:58:17;7.30;;;2.72;;
84759;SDS011;74983;51.084;11.086;2024-02-16T12:00:44;5.47;;;2.88;;
84759;SDS011;74983;51.084;11.086;2024-02-16T12:03:10;4.03;;;2.90;;
84759;SDS011;74983;51.084;11.086;2024-02-16T12:05:35;2.80;;;2.20;;
84759;SDS011;74983;51.084;11.086;2024-02-16T12:08:00;3.03;;;2.40;;
84759;SDS011;74983;51.084;11.086;2024-02-16T12:10:26;5.00;;;2.83;;
84759;SDS011;74983;51.084;11.086;2024-02-16T12:12:52;3.17;;;2.47;;
84759;SDS011;74983;51.084;11.086;2024-02-16T12:15:17;3.60;;;2.20;;
84759;SDS011;74983;51.084;11.086;2024-02-16T12:17:44;3.20;;;2.10;;
84759;SDS011;74983;51.084;11.086;2024-02-16T12:20:10;3.13;;;1.90;;
84759;SDS011;74983;51.084;11.086;2024-02-16T12:22:37;4.13;;;2.35;;
84759;SDS011;74983;51.084;11.086;2024-02-16T12:25:03;4.73;;;2.37;;
84759;SDS011;74983;51.084;11.086;2024-02-16T12:27:28;3.38;;;1.73;;
84759;SDS011;74983;51.084;11.086;2024-02-16T12:29:54;2.70;;;1.30;;
84759;SDS011;74983;51.084;11.086;2024-02-16T12:32:19;3.33;;;1.43;;
84759;SDS011;74983;51.084;11.086;2024-02-16T12:34:44;3.17;;;1.40;;
84759;SDS011;74983;51.084;11.086;2024-02-16T12:37:10;4.38;;;1.75;;
84759;SDS011;74983;51.084;11.086;2024-02-16T12:39:36;1.67;;;1.48;;
84759;SDS011;74983;51.084;11.086;2024-02-16T12:42:01;2.85;;;1.55;;
84759;SDS011;74983;51.084;11.086;2024-02-16T12:44:27;3.90;;;1.80;;
84759;SDS011;74983;51.084;11.086;2024-02-16T12:46:53;3.30;;;1.80;;
84759;SDS011;74983;51.084;11.086;2024-02-16T12:49:18;3.27;;;1.57;;
84759;SDS011;74983;51.084;11.086;2024-02-16T12:51:46;2.70;;;1.17;;
84759;SDS011;74983;51.084;11.086;2024-02-16T12:54:12;3.70;;;1.35;;
84759;SDS011;74983;51.084;11.086;2024-02-16T12:56:39;3.75;;;1.60;;
84759;SDS011;74983;51.084;11.086;2024-02-16T12:59:05;1.95;;;1.50;;
84759;SDS011;74983;51.084;11.086;2024-02-16T13:01:30;2.88;;;1.10;;
84759;SDS011;74983;51.084;11.086;2024-02-16T13:03:56;2.67;;;1.45;;
84759;SDS011;74983;51.084;11.086;2024-02-16T13:06:21;4.03;;;1.50;;
84759;SDS011;74983;51.084;11.086;2024-02-16T13:08:46;2.80;;;1.60;;
84759;SDS011;74983;51.084;11.086;2024-02-16T13:11:12;2.47;;;1.30;;
84759;SDS011;74983;51.084;11.086;2024-02-16T13:13:37;2.83;;;1.90;;
84759;SDS011;74983;51.084;11.086;2024-02-16T13:16:03;5.20;;;2.00;;
84759;SDS011;74983;51.084;11.086;2024-02-16T13:18:28;3.60;;;2.13;;
84759;SDS011;74983;51.084;11.086;2024-02-16T13:20:53;6.50;;;2.30;;
84759;SDS011;74983;51.084;11.086;2024-02-16T13:23:19;5.63;;;2.13;;
84759;SDS011;74983;51.084;11.086;2024-02-16T13:25:44;5.03;;;1.77;;
84759;SDS011;74983;51.084;11.086;2024-02-16T13:28:09;5.13;;;2.00;;
84759;SDS011;74983;51.084;11.086;2024-02-16T13:30:34;4.53;;;1.93;;
84759;SDS011;74983;51.084;11.086;2024-02-16T13:33:00;3.33;;;1.90;;
84759;SDS011;74983;51.084;11.086;2024-02-16T13:35:25;2.67;;;1.53;;
84759;SDS011;74983;51.084;11.086;2024-02-16T13:37:51;3.65;;;2.75;;
84759;SDS011;74983;51.084;11.086;2024-02-16T13:40:16;3.67;;;1.67;;
84759;SDS011;74983;51.084;11.086;2024-02-16T13:42:42;2.22;;;1.08;;
84759;SDS011;74983;51.084;11.086;2024-02-16T13:45:08;2.08;;;1.20;;
84759;SDS011;74983;51.084;11.086;2024-02-16T13:47:34;2.90;;;1.17;;
84759;SDS011;74983;51.084;11.086;2024-02-16T13:49:59;3.57;;;1.57;;
84759;SDS011;74983;51.084;11.086;2024-02-16T13:52:25;2.50;;;1.23;;
84759;SDS011;74983;51.084;11.086;2024-02-16T13:54:51;3.47;;;1.10;;
84759;SDS011;74983;51.084;11.086;2024-02-16T13:57:16;2.42;;;1.20;;
84759;SDS011;74983;51.084;11.086;2024-02-16T13:59:42;2.37;;;1.30;;
84759;SDS011;74983;51.084;11.086;2024-02-16T14:02:07;1.92;;;1.20;;
84759;SDS011;74983;51.084;11.086;2024-02-16T14:04:33;2.55;;;1.13;;
84759;SDS011;74983;51.084;11.086;2024-02-16T14:06:58;3.58;;;1.52;;
84759;SDS011;74983;51.084;11.086;2024-02-16T14:09:24;2.67;;;1.43;;
84759;SDS011;74983;51.084;11.086;2024-02-16T14:11:49;1.55;;;1.20;;
84759;SDS011;74983;51.084;11.086;2024-02-16T14:14:14;2.60;;;1.27;;
84759;SDS011;74983;51.084;11.086;2024-02-16T14:16:40;2.97;;;1.38;;
84759;SDS011;74983;51.084;11.086;2024-02-16T14:19:06;2.47;;;1.50;;
84759;SDS011;74983;51.084;11.086;2024-02-16T14:21:31;3.27;;;1.43;;
84759;SDS011;74983;51.084;11.086;2024-02-16T14:23:57;4.28;;;1.50;;
84759;SDS011;74983;51.084;11.086;2024-02-16T14:26:22;3.00;;;1.23;;
84759;SDS011;74983;51.084;11.086;2024-02-16T14:28:48;3.35;;;1.70;;